sensor_id;sensor_type;location;lat;lon;timestamp;pressure;altitude;pressure_sealevel;temperature
24714;BMP280;12820;51.580;5.010;2023-04-15T00:01:48;100662.34;;;12.49
24714;BMP280;12820;51.580;5.010;2023-04-15T00:06:51;100678.44;;;12.43
24714;BMP280;12820;51.580;5.010;2023-04-15T00:11:54;100672.66;;;12.40
24714;BMP280;12820;51.580;5.010;2023-04-15T00:16:56;100674.44;;;12.35
24714;BMP280;12820;51.580;5.010;2023-04-15T00:21:58;100672.00;;;12.32
24714;BMP280;12820;51.580;5.010;2023-04-15T00:27:01;100675.41;;;12.30
24714;BMP280;12820;51.580;5.010;2023-04-15T00:32:03;100677.16;;;12.28
24714;BMP280;12820;51.580;5.010;2023-04-15T00:37:05;100675.56;;;12.24
24714;BMP280;12820;51.580;5.010;2023-04-15T00:42:07;100682.38;;;12.19
24714;BMP280;12820;51.580;5.010;2023-04-15T00:47:10;100684.19;;;12.14
24714;BMP280;12820;51.580;5.010;2023-04-15T00:52:12;100682.59;;;12.10
24714;BMP280;12820;51.580;5.010;2023-04-15T00:57:15;100672.69;;;12.05
24714;BMP280;12820;51.580;5.010;2023-04-15T01:02:17;100668.59;;;11.99
24714;BMP280;12820;51.580;5.010;2023-04-15T01:07:20;100661.16;;;11.95
24714;BMP280;12820;51.580;5.010;2023-04-15T01:12:25;100666.31;;;11.89
24714;BMP280;12820;51.580;5.010;2023-04-15T01:17:28;100669.81;;;11.82
24714;BMP280;12820;51.580;5.010;2023-04-15T01:22:32;100673.34;;;11.75
24714;BMP280;12820;51.580;5.010;2023-04-15T01:27:38;100681.03;;;11.70
24714;BMP280;12820;51.580;5.010;2023-04-15T01:32:40;100683.63;;;11.65
24714;BMP280;12820;51.580;5.010;2023-04-15T01:37:43;100685.41;;;11.62
24714;BMP280;12820;51.580;5.010;2023-04-15T01:42:46;100682.06;;;11.60
24714;BMP280;12820;51.580;5.010;2023-04-15T01:47:49;100682.94;;;11.57
24714;BMP280;12820;51.580;5.010;2023-04-15T01:52:51;100684.66;;;11.57
24714;BMP280;12820;51.580;5.010;2023-04-15T01:57:54;100685.50;;;11.56
24714;BMP280;12820;51.580;5.010;2023-04-15T02:02:56;100676.22;;;11.58
24714;BMP280;12820;51.580;5.010;2023-04-15T02:08:02;100676.19;;;11.59
24714;BMP280;12820;51.580;5.010;2023-04-15T02:13:05;100688.75;;;11.61
24714;BMP280;12820;51.580;5.010;2023-04-15T02:18:07;100684.47;;;11.64
24714;BMP280;12820;51.580;5.010;2023-04-15T02:23:10;100686.16;;;11.65
24714;BMP280;12820;51.580;5.010;2023-04-15T02:28:12;100688.66;;;11.67
24714;BMP280;12820;51.580;5.010;2023-04-15T02:33:14;100690.25;;;11.69
24714;BMP280;12820;51.580;5.010;2023-04-15T02:38:17;100706.19;;;11.71
24714;BMP280;12820;51.580;5.010;2023-04-15T02:43:19;100713.66;;;11.74
24714;BMP280;12820;51.580;5.010;2023-04-15T02:48:21;100723.69;;;11.75
24714;BMP280;12820;51.580;5.010;2023-04-15T02:53:23;100727.00;;;11.77
24714;BMP280;12820;51.580;5.010;2023-04-15T02:58:26;100730.38;;;11.76
24714;BMP280;12820;51.580;5.010;2023-04-15T03:03:28;100742.06;;;11.80
24714;BMP280;12820;51.580;5.010;2023-04-15T03:08:31;100736.13;;;11.81
24714;BMP280;12820;51.580;5.010;2023-04-15T03:13:33;100736.97;;;11.82
24714;BMP280;12820;51.580;5.010;2023-04-15T03:18:43;100742.00;;;11.82
24714;BMP280;12820;51.580;5.010;2023-04-15T03:23:47;100742.84;;;11.82
24714;BMP280;12820;51.580;5.010;2023-04-15T03:28:49;100738.66;;;11.81
24714;BMP280;12820;51.580;5.010;2023-04-15T03:33:52;100742.84;;;11.82
24714;BMP280;12820;51.580;5.010;2023-04-15T03:38:54;100758.03;;;11.79
24714;BMP280;12820;51.580;5.010;2023-04-15T03:43:57;100760.56;;;11.78
24714;BMP280;12820;51.580;5.010;2023-04-15T03:48:59;100753.84;;;11.77
24714;BMP280;12820;51.580;5.010;2023-04-15T03:54:02;100764.81;;;11.76
24714;BMP280;12820;51.580;5.010;2023-04-15T03:59:04;100778.28;;;11.73
24714;BMP280;12820;51.580;5.010;2023-04-15T04:04:06;100778.28;;;11.72
24714;BMP280;12820;51.580;5.010;2023-04-15T04:09:08;100790.09;;;11.70
24714;BMP280;12820;51.580;5.010;2023-04-15T04:14:10;100793.53;;;11.66
24714;BMP280;12820;51.580;5.010;2023-04-15T04:19:12;100799.44;;;11.64
24714;BMP280;12820;51.580;5.010;2023-04-15T04:24:15;100805.41;;;11.60
24714;BMP280;12820;51.580;5.010;2023-04-15T04:29:17;100805.50;;;11.54
24714;BMP280;12820;51.580;5.010;2023-04-15T04:34:19;100809.00;;;11.47
24714;BMP280;12820;51.580;5.010;2023-04-15T04:39:21;100821.69;;;11.41
24714;BMP280;12820;51.580;5.010;2023-04-15T04:44:23;100833.56;;;11.34
24714;BMP280;12820;51.580;5.010;2023-04-15T04:49:26;100851.28;;;11.28
24714;BMP280;12820;51.580;5.010;2023-04-15T04:54:28;100845.50;;;11.20
24714;BMP280;12820;51.580;5.010;2023-04-15T04:59:31;100864.91;;;11.14
24714;BMP280;12820;51.580;5.010;2023-04-15T05:04:34;100867.53;;;11.06
24714;BMP280;12820;51.580;5.010;2023-04-15T05:09:36;100872.66;;;11.00
24714;BMP280;12820;51.580;5.010;2023-04-15T05:14:38;100887.03;;;10.93
24714;BMP280;12820;51.580;5.010;2023-04-15T05:19:40;100893.03;;;10.86
24714;BMP280;12820;51.580;5.010;2023-04-15T05:24:42;100904.00;;;10.81
24714;BMP280;12820;51.580;5.010;2023-04-15T05:29:44;100914.91;;;10.78
24714;BMP280;12820;51.580;5.010;2023-04-15T05:34:47;100919.97;;;10.75
24714;BMP280;12820;51.580;5.010;2023-04-15T05:39:49;100938.41;;;10.74
24714;BMP280;12820;51.580;5.010;2023-04-15T05:45:00;100943.44;;;10.74
24714;BMP280;12820;51.580;5.010;2023-04-15T05:50:02;100954.41;;;10.70
24714;BMP280;12820;51.580;5.010;2023-04-15T05:55:09;100958.59;;;10.70
24714;BMP280;12820;51.580;5.010;2023-04-15T06:00:13;100973.66;;;10.71
24714;BMP280;12820;51.580;5.010;2023-04-15T06:05:15;100981.16;;;10.74
24714;BMP280;12820;51.580;5.010;2023-04-15T06:10:17;100992.00;;;10.79
24714;BMP280;12820;51.580;5.010;2023-04-15T06:15:19;100996.94;;;10.85
24714;BMP280;12820;51.580;5.010;2023-04-15T06:20:21;101006.94;;;10.91
24714;BMP280;12820;51.580;5.010;2023-04-15T06:25:29;101020.25;;;10.96
24714;BMP280;12820;51.580;5.010;2023-04-15T06:30:34;101026.03;;;11.02
24714;BMP280;12820;51.580;5.010;2023-04-15T06:35:37;101036.88;;;11.07
24714;BMP280;12820;51.580;5.010;2023-04-15T06:40:41;101045.22;;;11.10
24714;BMP280;12820;51.580;5.010;2023-04-15T06:45:46;101058.59;;;11.14
24714;BMP280;12820;51.580;5.010;2023-04-15T06:50:50;101062.72;;;11.19
24714;BMP280;12820;51.580;5.010;2023-04-15T06:55:52;101069.31;;;11.26
24714;BMP280;12820;51.580;5.010;2023-04-15T07:00:55;101069.28;;;11.33
24714;BMP280;12820;51.580;5.010;2023-04-15T07:06:00;101078.38;;;11.41
24714;BMP280;12820;51.580;5.010;2023-04-15T07:11:08;101084.97;;;11.48
24714;BMP280;12820;51.580;5.010;2023-04-15T07:16:12;101097.41;;;11.58
24714;BMP280;12820;51.580;5.010;2023-04-15T07:21:14;101099.84;;;11.66
24714;BMP280;12820;51.580;5.010;2023-04-15T07:26:16;101103.91;;;11.74
24714;BMP280;12820;51.580;5.010;2023-04-15T07:31:18;101111.34;;;11.81
24714;BMP280;12820;51.580;5.010;2023-04-15T07:36:21;101127.19;;;11.89
24714;BMP280;12820;51.580;5.010;2023-04-15T07:41:23;101129.56;;;11.98
24714;BMP280;12820;51.580;5.010;2023-04-15T07:46:26;101135.31;;;12.06
24714;BMP280;12820;51.580;5.010;2023-04-15T07:51:29;101146.91;;;12.15
24714;BMP280;12820;51.580;5.010;2023-04-15T07:56:31;101158.50;;;12.25
24714;BMP280;12820;51.580;5.010;2023-04-15T08:01:33;101164.22;;;12.36
24714;BMP280;12820;51.580;5.010;2023-04-15T08:06:35;101180.88;;;12.45
24714;BMP280;12820;51.580;5.010;2023-04-15T08:11:41;101185.69;;;12.57
24714;BMP280;12820;51.580;5.010;2023-04-15T08:16:43;101183.88;;;12.68
24714;BMP280;12820;51.580;5.010;2023-04-15T08:21:45;101192.91;;;12.80
24714;BMP280;12820;51.580;5.010;2023-04-15T08:26:49;101208.66;;;12.91
24714;BMP280;12820;51.580;5.010;2023-04-15T08:31:52;101207.59;;;13.04
24714;BMP280;12820;51.580;5.010;2023-04-15T08:36:55;101214.94;;;13.15
24714;BMP280;12820;51.580;5.010;2023-04-15T08:42:01;101219.78;;;13.27
24714;BMP280;12820;51.580;5.010;2023-04-15T08:47:07;101231.38;;;13.37
24714;BMP280;12820;51.580;5.010;2023-04-15T08:52:10;101248.75;;;13.51
24714;BMP280;12820;51.580;5.010;2023-04-15T08:57:13;101257.78;;;13.63
24714;BMP280;12820;51.580;5.010;2023-04-15T09:02:16;101259.22;;;13.75
24714;BMP280;12820;51.580;5.010;2023-04-15T09:07:18;101263.28;;;13.84
24714;BMP280;12820;51.580;5.010;2023-04-15T09:12:20;101274.00;;;13.94
24714;BMP280;12820;51.580;5.010;2023-04-15T09:17:23;101278.78;;;14.06
24714;BMP280;12820;51.580;5.010;2023-04-15T09:22:31;101289.50;;;14.17
24714;BMP280;12820;51.580;5.010;2023-04-15T09:27:35;101297.72;;;14.26
24714;BMP280;12820;51.580;5.010;2023-04-15T09:32:48;101301.66;;;14.37
24714;BMP280;12820;51.580;5.010;2023-04-15T09:37:51;101315.84;;;14.45
24714;BMP280;12820;51.580;5.010;2023-04-15T09:42:56;101306.34;;;14.55
24714;BMP280;12820;51.580;5.010;2023-04-15T09:48:13;101309.50;;;14.64
24714;BMP280;12820;51.580;5.010;2023-04-15T09:53:17;101322.75;;;14.75
24714;BMP280;12820;51.580;5.010;2023-04-15T09:58:24;101322.47;;;14.85
24714;BMP280;12820;51.580;5.010;2023-04-15T10:03:32;101336.47;;;15.00
24714;BMP280;12820;51.580;5.010;2023-04-15T10:08:37;101325.94;;;15.16
24714;BMP280;12820;51.580;5.010;2023-04-15T10:13:40;101336.34;;;15.37
24714;BMP280;12820;51.580;5.010;2023-04-15T10:18:44;101327.03;;;16.00
24714;BMP280;12820;51.580;5.010;2023-04-15T10:23:47;101332.09;;;16.83
24714;BMP280;12820;51.580;5.010;2023-04-15T10:28:50;101336.97;;;18.32
24714;BMP280;12820;51.580;5.010;2023-04-15T10:33:53;101314.75;;;22.77
24714;BMP280;12820;51.580;5.010;2023-04-15T10:38:55;101313.06;;;25.57
24714;BMP280;12820;51.580;5.010;2023-04-15T10:44:02;101312.34;;;27.64
24714;BMP280;12820;51.580;5.010;2023-04-15T10:49:10;101322.41;;;29.44
24714;BMP280;12820;51.580;5.010;2023-04-15T10:59:38;101350.72;;;29.06
24714;BMP280;12820;51.580;5.010;2023-04-15T11:04:59;101349.13;;;26.88
24714;BMP280;12820;51.580;5.010;2023-04-15T11:10:49;101349.63;;;27.60
24714;BMP280;12820;51.580;5.010;2023-04-15T11:20:50;101342.88;;;33.31
24714;BMP280;12820;51.580;5.010;2023-04-15T11:25:57;101340.91;;;35.12
24714;BMP280;12820;51.580;5.010;2023-04-15T11:31:11;101349.22;;;35.77
24714;BMP280;12820;51.580;5.010;2023-04-15T11:36:14;101361.28;;;36.09
24714;BMP280;12820;51.580;5.010;2023-04-15T11:41:19;101361.50;;;36.38
24714;BMP280;12820;51.580;5.010;2023-04-15T11:46:28;101372.94;;;36.96
24714;BMP280;12820;51.580;5.010;2023-04-15T11:51:32;101366.78;;;37.33
24714;BMP280;12820;51.580;5.010;2023-04-15T11:56:36;101370.66;;;37.37
24714;BMP280;12820;51.580;5.010;2023-04-15T12:01:40;101367.69;;;33.77
24714;BMP280;12820;51.580;5.010;2023-04-15T12:06:45;101388.16;;;30.99
24714;BMP280;12820;51.580;5.010;2023-04-15T12:11:51;101389.97;;;29.22
24714;BMP280;12820;51.580;5.010;2023-04-15T12:22:08;101410.03;;;27.36
24714;BMP280;12820;51.580;5.010;2023-04-15T12:27:13;101410.56;;;26.83
24714;BMP280;12820;51.580;5.010;2023-04-15T12:32:16;101428.16;;;26.54
24714;BMP280;12820;51.580;5.010;2023-04-15T12:37:20;101426.75;;;26.50
24714;BMP280;12820;51.580;5.010;2023-04-15T12:42:22;101440.66;;;26.60
24714;BMP280;12820;51.580;5.010;2023-04-15T12:47:24;101431.47;;;27.26
24714;BMP280;12820;51.580;5.010;2023-04-15T12:52:27;101442.69;;;28.36
24714;BMP280;12820;51.580;5.010;2023-04-15T12:57:29;101436.47;;;29.12
24714;BMP280;12820;51.580;5.010;2023-04-15T13:02:31;101461.31;;;29.15
24714;BMP280;12820;51.580;5.010;2023-04-15T13:07:33;101446.91;;;30.52
24714;BMP280;12820;51.580;5.010;2023-04-15T13:12:35;101460.56;;;31.49
24714;BMP280;12820;51.580;5.010;2023-04-15T13:17:37;101463.88;;;32.59
24714;BMP280;12820;51.580;5.010;2023-04-15T13:22:40;101473.28;;;32.43
24714;BMP280;12820;51.580;5.010;2023-04-15T13:27:42;101481.47;;;33.10
24714;BMP280;12820;51.580;5.010;2023-04-15T13:32:44;101485.41;;;33.14
24714;BMP280;12820;51.580;5.010;2023-04-15T13:37:46;101494.09;;;34.07
24714;BMP280;12820;51.580;5.010;2023-04-15T13:42:50;101489.50;;;35.24
24714;BMP280;12820;51.580;5.010;2023-04-15T13:47:54;101495.56;;;36.26
24714;BMP280;12820;51.580;5.010;2023-04-15T13:52:56;101516.94;;;37.05
24714;BMP280;12820;51.580;5.010;2023-04-15T13:57:58;101529.28;;;37.27
24714;BMP280;12820;51.580;5.010;2023-04-15T14:03:00;101520.47;;;37.50
24714;BMP280;12820;51.580;5.010;2023-04-15T14:08:03;101528.88;;;37.37
24714;BMP280;12820;51.580;5.010;2023-04-15T14:13:05;101531.34;;;36.64
24714;BMP280;12820;51.580;5.010;2023-04-15T14:18:07;101527.91;;;36.63
24714;BMP280;12820;51.580;5.010;2023-04-15T14:23:10;101546.38;;;34.64
24714;BMP280;12820;51.580;5.010;2023-04-15T14:28:13;101553.63;;;33.26
24714;BMP280;12820;51.580;5.010;2023-04-15T14:33:15;101558.00;;;31.82
24714;BMP280;12820;51.580;5.010;2023-04-15T14:38:17;101553.44;;;32.40
24714;BMP280;12820;51.580;5.010;2023-04-15T14:43:19;101565.72;;;32.56
24714;BMP280;12820;51.580;5.010;2023-04-15T14:48:22;101569.31;;;32.37
24714;BMP280;12820;51.580;5.010;2023-04-15T14:53:24;101574.28;;;32.12
24714;BMP280;12820;51.580;5.010;2023-04-15T14:58:26;101593.72;;;31.90
24714;BMP280;12820;51.580;5.010;2023-04-15T15:03:28;101579.09;;;31.32
24714;BMP280;12820;51.580;5.010;2023-04-15T15:08:31;101592.09;;;30.33
24714;BMP280;12820;51.580;5.010;2023-04-15T15:13:50;101595.06;;;30.09
24714;BMP280;12820;51.580;5.010;2023-04-15T15:18:52;101610.22;;;29.94
24714;BMP280;12820;51.580;5.010;2023-04-15T15:23:54;101616.47;;;29.39
24714;BMP280;12820;51.580;5.010;2023-04-15T15:28:57;101606.19;;;29.27
24714;BMP280;12820;51.580;5.010;2023-04-15T15:33:59;101626.13;;;29.26
24714;BMP280;12820;51.580;5.010;2023-04-15T15:39:02;101636.47;;;29.26
24714;BMP280;12820;51.580;5.010;2023-04-15T15:44:06;101647.06;;;29.13
24714;BMP280;12820;51.580;5.010;2023-04-15T15:49:08;101662.16;;;28.64
24714;BMP280;12820;51.580;5.010;2023-04-15T15:54:10;101673.34;;;28.08
24714;BMP280;12820;51.580;5.010;2023-04-15T15:59:12;101680.63;;;27.91
24714;BMP280;12820;51.580;5.010;2023-04-15T16:04:14;101672.78;;;28.15
24714;BMP280;12820;51.580;5.010;2023-04-15T16:09:17;101688.38;;;28.59
24714;BMP280;12820;51.580;5.010;2023-04-15T16:14:20;101688.59;;;28.56
24714;BMP280;12820;51.580;5.010;2023-04-15T16:19:22;101700.63;;;28.12
24714;BMP280;12820;51.580;5.010;2023-04-15T16:24:25;101694.28;;;27.93
24714;BMP280;12820;51.580;5.010;2023-04-15T16:29:28;101704.16;;;27.98
24714;BMP280;12820;51.580;5.010;2023-04-15T16:34:30;101722.19;;;28.23
24714;BMP280;12820;51.580;5.010;2023-04-15T16:39:32;101729.34;;;28.19
24714;BMP280;12820;51.580;5.010;2023-04-15T16:44:34;101741.56;;;27.70
24714;BMP280;12820;51.580;5.010;2023-04-15T16:49:37;101744.50;;;27.17
24714;BMP280;12820;51.580;5.010;2023-04-15T16:54:39;101752.69;;;26.48
24714;BMP280;12820;51.580;5.010;2023-04-15T16:59:44;101757.44;;;25.61
24714;BMP280;12820;51.580;5.010;2023-04-15T17:04:46;101782.25;;;24.77
24714;BMP280;12820;51.580;5.010;2023-04-15T17:09:48;101787.94;;;23.93
24714;BMP280;12820;51.580;5.010;2023-04-15T17:14:50;101787.59;;;23.19
24714;BMP280;12820;51.580;5.010;2023-04-15T17:19:52;101788.44;;;22.52
24714;BMP280;12820;51.580;5.010;2023-04-15T17:24:54;101799.09;;;21.91
24714;BMP280;12820;51.580;5.010;2023-04-15T17:29:57;101809.97;;;21.39
24714;BMP280;12820;51.580;5.010;2023-04-15T17:35:00;101820.34;;;20.96
24714;BMP280;12820;51.580;5.010;2023-04-15T17:40:03;101823.91;;;20.50
24714;BMP280;12820;51.580;5.010;2023-04-15T17:45:09;101823.78;;;20.10
24714;BMP280;12820;51.580;5.010;2023-04-15T17:50:12;101837.91;;;19.73
24714;BMP280;12820;51.580;5.010;2023-04-15T17:55:14;101834.09;;;19.37
24714;BMP280;12820;51.580;5.010;2023-04-15T18:00:16;101840.50;;;18.99
24714;BMP280;12820;51.580;5.010;2023-04-15T18:05:18;101850.19;;;18.61
24714;BMP280;12820;51.580;5.010;2023-04-15T18:10:20;101852.19;;;18.25
24714;BMP280;12820;51.580;5.010;2023-04-15T18:15:23;101865.94;;;17.90
24714;BMP280;12820;51.580;5.010;2023-04-15T18:20:25;101862.59;;;17.57
24714;BMP280;12820;51.580;5.010;2023-04-15T18:25:27;101881.16;;;17.26
24714;BMP280;12820;51.580;5.010;2023-04-15T18:30:31;101882.84;;;16.93
24714;BMP280;12820;51.580;5.010;2023-04-15T18:35:33;101894.47;;;16.66
24714;BMP280;12820;51.580;5.010;2023-04-15T18:40:35;101898.50;;;16.37
24714;BMP280;12820;51.580;5.010;2023-04-15T18:45:37;101896.53;;;16.10
24714;BMP280;12820;51.580;5.010;2023-04-15T18:50:41;101907.22;;;15.81
24714;BMP280;12820;51.580;5.010;2023-04-15T18:55:44;101926.25;;;15.56
24714;BMP280;12820;51.580;5.010;2023-04-15T19:00:46;101941.78;;;15.37
24714;BMP280;12820;51.580;5.010;2023-04-15T19:05:48;101943.78;;;15.21
24714;BMP280;12820;51.580;5.010;2023-04-15T19:10:50;101947.44;;;15.01
24714;BMP280;12820;51.580;5.010;2023-04-15T19:15:52;101962.03;;;14.83
24714;BMP280;12820;51.580;5.010;2023-04-15T19:20:55;101968.16;;;14.67
24714;BMP280;12820;51.580;5.010;2023-04-15T19:25:57;101976.75;;;14.53
24714;BMP280;12820;51.580;5.010;2023-04-15T19:30:59;101981.94;;;14.43
24714;BMP280;12820;51.580;5.010;2023-04-15T19:36:05;101989.69;;;14.31
24714;BMP280;12820;51.580;5.010;2023-04-15T19:41:07;101989.78;;;14.22
24714;BMP280;12820;51.580;5.010;2023-04-15T19:46:11;101996.59;;;14.15
24714;BMP280;12820;51.580;5.010;2023-04-15T19:51:14;102001.72;;;14.09
24714;BMP280;12820;51.580;5.010;2023-04-15T19:56:16;102000.13;;;14.02
24714;BMP280;12820;51.580;5.010;2023-04-15T20:01:19;102000.16;;;13.96
24714;BMP280;12820;51.580;5.010;2023-04-15T20:06:21;102001.88;;;13.94
24714;BMP280;12820;51.580;5.010;2023-04-15T20:11:23;101996.88;;;13.88
24714;BMP280;12820;51.580;5.010;2023-04-15T20:16:50;102009.56;;;13.84
24714;BMP280;12820;51.580;5.010;2023-04-15T20:21:52;102018.84;;;13.81
24714;BMP280;12820;51.580;5.010;2023-04-15T20:26:55;102026.44;;;13.76
24714;BMP280;12820;51.580;5.010;2023-04-15T20:31:58;102020.56;;;13.74
24714;BMP280;12820;51.580;5.010;2023-04-15T20:37:00;102026.47;;;13.72
24714;BMP280;12820;51.580;5.010;2023-04-15T20:42:03;102023.97;;;13.69
24714;BMP280;12820;51.580;5.010;2023-04-15T20:47:05;102036.63;;;13.69
24714;BMP280;12820;51.580;5.010;2023-04-15T20:52:08;102034.09;;;13.66
24714;BMP280;12820;51.580;5.010;2023-04-15T20:57:10;102042.56;;;13.62
24714;BMP280;12820;51.580;5.010;2023-04-15T21:02:12;102045.13;;;13.59
24714;BMP280;12820;51.580;5.010;2023-04-15T21:07:14;102039.25;;;13.54
24714;BMP280;12820;51.580;5.010;2023-04-15T21:12:17;102052.75;;;13.50
24714;BMP280;12820;51.580;5.010;2023-04-15T21:17:19;102055.31;;;13.46
24714;BMP280;12820;51.580;5.010;2023-04-15T21:22:21;102047.78;;;13.42
24714;BMP280;12820;51.580;5.010;2023-04-15T21:27:23;102054.53;;;13.37
24714;BMP280;12820;51.580;5.010;2023-04-15T21:32:26;102049.53;;;13.31
24714;BMP280;12820;51.580;5.010;2023-04-15T21:37:29;102058.81;;;13.28
24714;BMP280;12820;51.580;5.010;2023-04-15T21:42:31;102070.63;;;13.23
24714;BMP280;12820;51.580;5.010;2023-04-15T21:47:33;102072.31;;;13.15
24714;BMP280;12820;51.580;5.010;2023-04-15T21:52:55;102067.34;;;13.08
24714;BMP280;12820;51.580;5.010;2023-04-15T21:57:57;102074.94;;;13.02
24714;BMP280;12820;51.580;5.010;2023-04-15T22:02:59;102077.47;;;12.97
24714;BMP280;12820;51.580;5.010;2023-04-15T22:08:01;102083.38;;;12.94
24714;BMP280;12820;51.580;5.010;2023-04-15T22:13:05;102084.22;;;12.91
24714;BMP280;12820;51.580;5.010;2023-04-15T22:18:12;102086.75;;;12.88
24714;BMP280;12820;51.580;5.010;2023-04-15T22:23:14;102093.50;;;12.86
24714;BMP280;12820;51.580;5.010;2023-04-15T22:28:18;102100.25;;;12.84
24714;BMP280;12820;51.580;5.010;2023-04-15T22:33:20;102099.41;;;12.84
24714;BMP280;12820;51.580;5.010;2023-04-15T22:38:23;102102.75;;;12.81
24714;BMP280;12820;51.580;5.010;2023-04-15T22:43:25;102101.09;;;12.79
24714;BMP280;12820;51.580;5.010;2023-04-15T22:48:28;102107.84;;;12.76
24714;BMP280;12820;51.580;5.010;2023-04-15T22:53:30;102110.34;;;12.73
24714;BMP280;12820;51.580;5.010;2023-04-15T22:58:32;102112.06;;;12.71
24714;BMP280;12820;51.580;5.010;2023-04-15T23:03:34;102118.78;;;12.69
24714;BMP280;12820;51.580;5.010;2023-04-15T23:08:56;102122.16;;;12.68
24714;BMP280;12820;51.580;5.010;2023-04-15T23:13:58;102122.97;;;12.67
24714;BMP280;12820;51.580;5.010;2023-04-15T23:19:00;102127.19;;;12.68
24714;BMP280;12820;51.580;5.010;2023-04-15T23:24:03;102126.34;;;12.67
24714;BMP280;12820;51.580;5.010;2023-04-15T23:29:06;102142.34;;;12.65
24714;BMP280;12820;51.580;5.010;2023-04-15T23:34:09;102145.72;;;12.61
24714;BMP280;12820;51.580;5.010;2023-04-15T23:39:11;102146.53;;;12.54
24714;BMP280;12820;51.580;5.010;2023-04-15T23:44:13;102154.94;;;12.52
24714;BMP280;12820;51.580;5.010;2023-04-15T23:49:15;102158.31;;;12.49
24714;BMP280;12820;51.580;5.010;2023-04-15T23:54:21;102152.41;;;12.44
24714;BMP280;12820;51.580;5.010;2023-04-15T23:59:23;102158.31;;;12.42
